Taneyville, Missouri
Current Conditions -  °F | °C
As of 1:48 PM on Tuesday 21 Oct 2014 (Local Time) from KBBG Reporting Station
Few Clouds Few Clouds  
Wind Chill: 23°   Ceiling: Unl
Heat Index: 23°   Visibility: 10mi
Dew Point: 10°   Wind: 5mph
Humidity: 44%   Direction: 350°N
Pressure: 30.11"   Gusts: NA
Location:  36.74°N, 93.03°W
Report Text: KBBG 211848Z 35004KT 10SM FEW250 23/10 A3011
Loading
Personal Weather Stations






























Interactive Weather Map
Tropical Storm Tracking
New forecast layout! Learn more

10-Day Weather Forecast

Advertisements
Track Severe Weather on mobile